createdAt,value
2023-04-14T00:02:21.447Z,99.10
2023-04-14T00:04:51.808Z,99.10
2023-04-14T00:07:18.744Z,99.10
2023-04-14T00:09:45.386Z,99.10
2023-04-14T00:12:12.012Z,99.10
2023-04-14T00:14:38.602Z,99.10
2023-04-14T00:17:05.427Z,99.00
2023-04-14T00:19:32.023Z,99.00
2023-04-14T00:21:58.791Z,99.10
2023-04-14T00:24:25.373Z,99.10
2023-04-14T00:26:51.958Z,99.00
2023-04-14T00:29:18.541Z,98.90
2023-04-14T00:31:45.280Z,99.00
2023-04-14T00:34:11.886Z,98.90
2023-04-14T00:36:38.538Z,99.10
2023-04-14T00:39:05.361Z,98.80
2023-04-14T00:41:35.120Z,98.90
2023-04-14T00:44:04.790Z,99.00
2023-04-14T00:46:31.605Z,99.20
2023-04-14T00:48:58.253Z,99.20
2023-04-14T00:51:25.274Z,99.30
2023-04-14T00:53:53.327Z,99.30
2023-04-14T00:56:20.211Z,99.40
2023-04-14T00:58:46.833Z,99.60
2023-04-14T01:01:13.586Z,99.70
2023-04-14T01:03:40.717Z,99.70
2023-04-14T01:06:07.553Z,99.90
2023-04-14T01:08:34.741Z,99.90
2023-04-14T01:11:07.750Z,99.90
2023-04-14T01:13:39.571Z,99.90
2023-04-14T01:16:11.666Z,99.90
2023-04-14T01:18:47.232Z,99.90
2023-04-14T01:21:17.758Z,99.90
2023-04-14T01:24:04.620Z,99.90
2023-04-14T01:26:31.575Z,99.90
2023-04-14T01:29:04.276Z,99.80
2023-04-14T01:31:53.933Z,99.70
2023-04-14T01:34:23.704Z,99.70
2023-04-14T01:37:06.395Z,99.70
2023-04-14T01:39:35.061Z,99.80
2023-04-14T01:42:03.844Z,99.90
2023-04-14T01:44:31.201Z,99.90
2023-04-14T01:47:01.998Z,99.80
2023-04-14T01:49:30.463Z,99.70
2023-04-14T01:51:57.074Z,99.90
2023-04-14T01:54:24.335Z,99.80
2023-04-14T01:56:52.330Z,99.90
2023-04-14T01:59:20.771Z,99.90
2023-04-14T02:01:49.280Z,99.90
2023-04-14T02:04:17.225Z,99.90
2023-04-14T02:06:44.588Z,99.90
2023-04-14T02:09:12.918Z,99.90
2023-04-14T02:11:40.552Z,99.90
2023-04-14T02:14:07.863Z,99.90
2023-04-14T02:16:35.919Z,99.90
2023-04-14T02:19:03.793Z,99.90
2023-04-14T02:21:31.139Z,99.90
2023-04-14T02:23:57.753Z,99.90
2023-04-14T02:26:26.765Z,99.90
2023-04-14T02:29:12.489Z,99.90
2023-04-14T02:31:43.475Z,99.90
2023-04-14T02:34:12.207Z,99.90
2023-04-14T02:36:48.929Z,99.90
2023-04-14T02:39:17.793Z,99.90
2023-04-14T02:41:45.450Z,99.90
2023-04-14T02:44:19.334Z,99.90
2023-04-14T02:46:53.801Z,99.90
2023-04-14T02:49:21.315Z,99.90
2023-04-14T02:51:48.485Z,99.90
2023-04-14T02:54:15.562Z,99.90
2023-04-14T02:56:42.228Z,99.90
2023-04-14T02:59:08.957Z,99.90
2023-04-14T03:01:36.265Z,99.90
2023-04-14T03:04:03.122Z,99.90
2023-04-14T03:06:31.584Z,99.90
2023-04-14T03:08:59.854Z,99.90
2023-04-14T03:11:27.381Z,99.90
2023-04-14T03:13:56.223Z,99.90
2023-04-14T03:16:23.933Z,99.90
2023-04-14T03:18:50.998Z,99.90
2023-04-14T03:21:19.143Z,99.90
2023-04-14T03:23:46.422Z,99.90
2023-04-14T03:26:14.762Z,99.90
2023-04-14T03:28:42.658Z,99.90
2023-04-14T03:31:10.732Z,99.90
2023-04-14T03:33:38.710Z,99.90
2023-04-14T03:36:06.485Z,99.90
2023-04-14T03:38:33.245Z,99.90
2023-04-14T03:41:03.227Z,99.90
2023-04-14T03:43:31.684Z,99.90
2023-04-14T03:45:58.316Z,99.90
2023-04-14T03:48:26.414Z,99.90
2023-04-14T03:50:54.830Z,99.90
2023-04-14T03:53:21.748Z,99.90
2023-04-14T03:55:49.738Z,99.90
2023-04-14T03:58:17.120Z,99.90
2023-04-14T04:00:44.475Z,99.90
2023-04-14T04:03:12.174Z,99.90
2023-04-14T04:05:40.788Z,99.90
2023-04-14T04:08:08.222Z,99.90
2023-04-14T04:10:35.409Z,99.90
2023-04-14T04:13:02.885Z,99.90
2023-04-14T04:15:30.323Z,99.90
2023-04-14T04:17:58.084Z,99.90
2023-04-14T04:20:25.050Z,99.90
2023-04-14T04:22:52.675Z,99.90
2023-04-14T04:25:19.492Z,99.90
2023-04-14T04:27:46.308Z,99.90
2023-04-14T04:30:13.128Z,99.90
2023-04-14T04:32:39.771Z,99.90
2023-04-14T04:35:07.212Z,99.90
2023-04-14T04:37:34.668Z,99.90
2023-04-14T04:40:01.671Z,99.90
2023-04-14T04:42:28.351Z,99.90
2023-04-14T04:44:54.978Z,99.90
2023-04-14T04:47:21.708Z,99.90
2023-04-14T04:49:48.284Z,99.90
2023-04-14T04:52:14.860Z,99.90
2023-04-14T04:54:41.656Z,99.90
2023-04-14T04:57:08.299Z,99.90
2023-04-14T04:59:36.677Z,99.90
2023-04-14T05:02:04.639Z,99.90
2023-04-14T05:04:31.338Z,99.90
2023-04-14T05:06:58.190Z,99.90
2023-04-14T05:09:24.785Z,99.90
2023-04-14T05:11:51.387Z,99.90
2023-04-14T05:14:17.988Z,99.90
2023-04-14T05:16:44.586Z,99.90
2023-04-14T05:19:11.205Z,99.90
2023-04-14T05:21:38.063Z,99.90
2023-04-14T05:24:05.310Z,99.90
2023-04-14T05:26:54.397Z,99.90
2023-04-14T05:29:18.650Z,99.90
2023-04-14T05:31:45.294Z,99.90
2023-04-14T05:34:11.888Z,99.90
2023-04-14T05:36:38.486Z,99.90
2023-04-14T05:39:05.204Z,99.90
2023-04-14T05:41:31.778Z,99.90
2023-04-14T05:43:58.561Z,99.90
2023-04-14T05:46:25.289Z,99.90
2023-04-14T05:48:52.325Z,99.90
2023-04-14T05:51:18.898Z,99.90
2023-04-14T05:53:45.475Z,99.90
2023-04-14T05:56:12.145Z,99.90
2023-04-14T05:58:38.792Z,99.90
2023-04-14T06:01:06.264Z,99.90
2023-04-14T06:03:33.089Z,99.90
2023-04-14T06:05:59.867Z,99.90
2023-04-14T06:08:26.437Z,99.90
2023-04-14T06:10:53.099Z,99.90
2023-04-14T06:13:22.776Z,99.90
2023-04-14T06:15:50.830Z,99.90
2023-04-14T06:18:17.628Z,99.90
2023-04-14T06:20:45.368Z,99.90
2023-04-14T06:23:12.035Z,99.90
2023-04-14T06:25:38.613Z,99.90
2023-04-14T06:28:05.430Z,99.90
2023-04-14T06:30:32.292Z,99.90
2023-04-14T06:32:59.406Z,99.90
2023-04-14T06:35:32.508Z,99.90
2023-04-14T06:38:00.320Z,99.90
2023-04-14T06:40:26.965Z,99.90
2023-04-14T06:42:53.540Z,99.90
2023-04-14T06:45:20.365Z,99.90
2023-04-14T06:47:47.221Z,99.90
2023-04-14T06:50:14.461Z,99.90
2023-04-14T06:52:41.178Z,99.90
2023-04-14T06:55:08.023Z,99.90
2023-04-14T06:57:34.593Z,99.90
2023-04-14T07:00:01.199Z,99.90
2023-04-14T07:02:28.893Z,99.90
2023-04-14T07:04:55.950Z,99.90
2023-04-14T07:07:24.266Z,99.90
2023-04-14T07:09:50.923Z,99.90
2023-04-14T07:12:17.812Z,99.90
2023-04-14T07:14:51.059Z,99.90
2023-04-14T07:17:18.725Z,99.90
2023-04-14T07:19:46.209Z,99.90
2023-04-14T07:22:13.038Z,99.90
2023-04-14T07:24:39.875Z,99.90
2023-04-14T07:27:14.998Z,99.90
2023-04-14T07:29:42.099Z,99.90
2023-04-14T07:32:08.749Z,99.90
2023-04-14T07:34:35.466Z,99.90
2023-04-14T07:37:02.134Z,99.90
2023-04-14T07:39:29.273Z,99.90
2023-04-14T07:41:58.716Z,99.90
2023-04-14T07:44:25.382Z,99.90
2023-04-14T07:46:52.031Z,99.90
2023-04-14T07:49:18.699Z,99.90
2023-04-14T07:51:45.337Z,99.90
2023-04-14T07:54:12.057Z,99.90
2023-04-14T07:56:38.659Z,99.90
2023-04-14T07:59:05.301Z,99.90
2023-04-14T08:01:32.088Z,99.90
2023-04-14T08:03:58.891Z,99.90
2023-04-14T08:06:26.790Z,99.90
2023-04-14T08:08:53.654Z,99.90
2023-04-14T08:11:20.269Z,99.90
2023-04-14T08:13:46.904Z,99.90
2023-04-14T08:16:13.574Z,99.90
2023-04-14T08:18:40.902Z,99.90
2023-04-14T08:21:07.600Z,99.90
2023-04-14T08:23:34.312Z,99.90
2023-04-14T08:26:00.980Z,99.90
2023-04-14T08:28:27.972Z,99.90
2023-04-14T08:30:54.541Z,99.90
2023-04-14T08:33:21.335Z,99.90
2023-04-14T08:35:58.447Z,99.90
2023-04-14T08:38:26.863Z,99.90
2023-04-14T08:40:55.214Z,99.90
2023-04-14T08:43:21.917Z,99.90
2023-04-14T08:45:51.166Z,99.90
2023-04-14T08:48:19.727Z,99.90
2023-04-14T08:50:54.258Z,99.90
2023-04-14T08:53:23.098Z,99.90
2023-04-14T08:55:50.677Z,99.90
2023-04-14T08:58:17.518Z,99.90
2023-04-14T09:00:44.914Z,99.90
2023-04-14T09:03:11.953Z,99.90
2023-04-14T09:05:38.845Z,99.90
2023-04-14T09:08:05.532Z,99.90
2023-04-14T09:10:32.529Z,99.90
2023-04-14T09:13:00.179Z,99.90
2023-04-14T09:15:29.000Z,99.90
2023-04-14T09:17:56.153Z,99.90
2023-04-14T09:20:36.047Z,99.90
2023-04-14T09:23:07.111Z,99.90
2023-04-14T09:25:34.226Z,99.90
2023-04-14T09:28:01.016Z,99.90
2023-04-14T09:30:28.713Z,99.90
2023-04-14T09:32:56.544Z,99.90
2023-04-14T09:35:24.340Z,99.90
2023-04-14T09:37:51.026Z,99.90
2023-04-14T09:40:27.948Z,99.90
2023-04-14T09:42:55.996Z,99.90
2023-04-14T09:45:22.742Z,99.90
2023-04-14T09:48:06.035Z,99.90
2023-04-14T09:50:33.559Z,99.90
2023-04-14T09:53:04.159Z,99.90
2023-04-14T09:55:31.144Z,99.90
2023-04-14T09:57:57.893Z,99.90
2023-04-14T10:00:24.638Z,99.90
2023-04-14T10:02:56.117Z,99.90
2023-04-14T10:05:27.191Z,99.90
2023-04-14T10:07:53.989Z,99.90
2023-04-14T10:10:21.048Z,99.90
2023-04-14T10:12:47.896Z,99.90
2023-04-14T10:15:15.540Z,99.90
2023-04-14T10:17:45.189Z,99.90
2023-04-14T10:20:11.833Z,99.90
2023-04-14T10:22:40.791Z,99.90
2023-04-14T10:25:08.360Z,99.90
2023-04-14T10:27:35.434Z,99.90
2023-04-14T10:30:02.280Z,99.90
2023-04-14T10:32:31.326Z,99.90
2023-04-14T10:35:05.210Z,99.90
2023-04-14T10:37:34.848Z,99.90
2023-04-14T10:40:04.230Z,99.90
2023-04-14T10:42:51.079Z,99.90
2023-04-14T10:45:17.790Z,99.90
2023-04-14T10:47:45.644Z,99.90
2023-04-14T10:50:17.741Z,99.90
2023-04-14T10:52:55.853Z,99.90
2023-04-14T10:55:26.464Z,99.90
2023-04-14T10:57:54.575Z,99.90
2023-04-14T11:00:28.691Z,99.90
2023-04-14T11:03:02.609Z,99.90
2023-04-14T11:05:31.999Z,99.90
2023-04-14T11:08:01.553Z,99.90
2023-04-14T11:10:32.304Z,99.90
2023-04-14T11:13:11.004Z,99.90
2023-04-14T11:15:43.697Z,99.90
2023-04-14T11:18:33.781Z,99.90
2023-04-14T11:21:04.849Z,99.90
2023-04-14T11:23:31.773Z,99.90
2023-04-14T11:25:59.193Z,99.90
2023-04-14T11:28:29.647Z,99.90
2023-04-14T11:30:59.844Z,99.90
2023-04-14T11:33:29.973Z,99.90
2023-04-14T11:35:57.106Z,99.90
2023-04-14T11:38:24.350Z,99.90
2023-04-14T11:40:51.954Z,99.90
2023-04-14T11:43:20.786Z,99.90
2023-04-14T11:45:49.179Z,99.90
2023-04-14T11:48:16.715Z,99.90
2023-04-14T11:50:45.802Z,99.90
2023-04-14T11:53:13.302Z,99.90
2023-04-14T11:55:58.038Z,99.90
2023-04-14T11:58:25.611Z,99.90
2023-04-14T12:00:55.448Z,99.90
2023-04-14T12:03:25.573Z,99.90
2023-04-14T12:05:56.250Z,99.90
2023-04-14T12:08:24.003Z,99.90
2023-04-14T12:10:51.558Z,99.90
2023-04-14T12:13:19.052Z,99.90
2023-04-14T12:15:46.340Z,99.90
2023-04-14T12:18:16.427Z,99.90
2023-04-14T12:20:47.250Z,99.90
2023-04-14T12:23:15.487Z,99.90
2023-04-14T12:25:42.195Z,99.90
2023-04-14T12:28:08.944Z,99.90
2023-04-14T12:30:36.596Z,99.90
2023-04-14T12:33:10.764Z,99.90
2023-04-14T12:35:37.912Z,99.90
2023-04-14T12:38:14.557Z,99.90
2023-04-14T12:40:43.729Z,99.90
2023-04-14T12:43:10.513Z,99.90
2023-04-14T12:45:47.357Z,99.90
2023-04-14T12:48:15.886Z,99.90
2023-04-14T12:50:42.572Z,99.90
2023-04-14T12:53:25.195Z,99.90
2023-04-14T12:56:06.140Z,99.90
2023-04-14T12:58:33.273Z,99.90
2023-04-14T13:00:59.905Z,99.90
2023-04-14T13:03:38.331Z,99.90
2023-04-14T13:06:05.161Z,99.90
2023-04-14T13:08:32.586Z,99.90
2023-04-14T13:10:59.683Z,99.90
2023-04-14T13:13:26.285Z,99.90
2023-04-14T13:16:13.026Z,99.90
2023-04-14T13:18:39.392Z,99.90
2023-04-14T13:21:06.725Z,99.90
2023-04-14T13:23:33.393Z,99.90
2023-04-14T13:26:00.379Z,99.90
2023-04-14T13:28:27.004Z,99.90
2023-04-14T13:30:54.382Z,99.90
2023-04-14T13:33:21.192Z,99.90
2023-04-14T13:35:47.807Z,99.90
2023-04-14T13:38:14.656Z,99.90
2023-04-14T13:40:41.352Z,99.90
2023-04-14T13:43:08.779Z,99.90
2023-04-14T13:45:35.578Z,99.90
2023-04-14T13:48:02.546Z,99.90
2023-04-14T13:50:29.737Z,99.90
2023-04-14T13:52:56.352Z,99.90
2023-04-14T13:55:22.948Z,99.90
2023-04-14T13:57:49.573Z,99.90
2023-04-14T14:00:16.354Z,99.90
2023-04-14T14:02:43.064Z,99.90
2023-04-14T14:05:10.889Z,99.90
2023-04-14T14:07:37.933Z,99.90
2023-04-14T14:10:05.275Z,99.90
2023-04-14T14:12:32.564Z,99.90
2023-04-14T14:14:59.314Z,99.90
2023-04-14T14:17:26.015Z,99.90
2023-04-14T14:19:52.772Z,99.90
2023-04-14T14:22:19.323Z,99.90
2023-04-14T14:24:45.896Z,99.90
2023-04-14T14:27:12.477Z,99.90
2023-04-14T14:29:39.074Z,99.90
2023-04-14T14:32:05.768Z,99.90
2023-04-14T14:34:32.437Z,99.90
2023-04-14T14:36:59.223Z,99.90
2023-04-14T14:39:26.409Z,99.90
2023-04-14T14:41:53.033Z,99.90
2023-04-14T14:44:19.641Z,99.90
2023-04-14T14:46:47.209Z,99.90
2023-04-14T14:49:14.127Z,99.90
2023-04-14T14:51:40.950Z,99.90
2023-04-14T14:54:10.316Z,99.90
2023-04-14T14:56:37.280Z,99.90
2023-04-14T14:59:03.892Z,99.90
2023-04-14T15:01:30.571Z,99.90
2023-04-14T15:03:57.722Z,99.90
2023-04-14T15:06:24.677Z,99.90
2023-04-14T15:08:51.261Z,99.90
2023-04-14T15:11:18.388Z,99.90
2023-04-14T15:13:45.508Z,99.90
2023-04-14T15:16:12.169Z,99.90
2023-04-14T15:18:38.868Z,99.90
2023-04-14T15:21:08.129Z,99.90
2023-04-14T15:23:37.102Z,99.90
2023-04-14T15:26:03.675Z,99.90
2023-04-14T15:28:30.593Z,99.90
2023-04-14T15:30:57.343Z,99.90
2023-04-14T15:33:24.222Z,99.90
2023-04-14T15:35:50.968Z,99.90
2023-04-14T15:38:17.866Z,99.90
2023-04-14T15:40:44.465Z,99.90
2023-04-14T15:43:11.379Z,99.90
2023-04-14T15:45:38.140Z,99.90
2023-04-14T15:48:05.084Z,99.90
2023-04-14T15:50:31.678Z,99.90
2023-04-14T15:52:58.365Z,99.90
2023-04-14T15:55:25.071Z,99.90
2023-04-14T15:57:51.634Z,99.90
2023-04-14T16:00:18.845Z,99.90
2023-04-14T16:02:46.289Z,99.90
2023-04-14T16:05:13.264Z,99.90
2023-04-14T16:07:39.943Z,99.90
2023-04-14T16:10:06.932Z,99.90
2023-04-14T16:12:35.155Z,99.90
2023-04-14T16:15:02.635Z,99.90
2023-04-14T16:17:29.307Z,99.90
2023-04-14T16:19:55.975Z,99.90
2023-04-14T16:22:22.586Z,99.90
2023-04-14T16:24:49.209Z,99.90
2023-04-14T16:27:16.858Z,99.90
2023-04-14T16:29:43.520Z,99.90
2023-04-14T16:32:10.087Z,99.90
2023-04-14T16:34:36.709Z,99.90
2023-04-14T16:37:03.307Z,99.90
2023-04-14T16:39:30.572Z,99.90
2023-04-14T16:41:58.197Z,99.90
2023-04-14T16:44:24.890Z,99.90
2023-04-14T16:46:51.663Z,99.90
2023-04-14T16:49:18.334Z,99.90
2023-04-14T16:51:46.091Z,99.90
2023-04-14T16:54:12.669Z,99.90
2023-04-14T16:56:39.517Z,99.90
2023-04-14T16:59:07.160Z,99.90
2023-04-14T17:01:33.963Z,99.90
2023-04-14T17:04:00.990Z,99.90
2023-04-14T17:06:27.886Z,99.90
2023-04-14T17:08:54.463Z,99.90
2023-04-14T17:11:21.524Z,99.90
2023-04-14T17:13:48.195Z,99.90
2023-04-14T17:16:14.835Z,99.90
2023-04-14T17:18:41.496Z,99.90
2023-04-14T17:21:08.112Z,99.90
2023-04-14T17:23:35.457Z,99.90
2023-04-14T17:26:02.171Z,99.90
2023-04-14T17:28:29.072Z,99.90
2023-04-14T17:30:55.705Z,99.90
2023-04-14T17:33:22.524Z,99.90
2023-04-14T17:35:49.304Z,99.90
2023-04-14T17:38:15.951Z,99.90
2023-04-14T17:40:42.631Z,99.90
2023-04-14T17:43:09.200Z,99.90
2023-04-14T17:45:36.131Z,99.90
2023-04-14T17:48:03.581Z,99.90
2023-04-14T17:50:30.324Z,99.90
2023-04-14T17:52:57.592Z,99.90
2023-04-14T17:55:24.310Z,99.90
2023-04-14T17:57:51.610Z,99.90
2023-04-14T18:00:19.094Z,99.90
2023-04-14T18:02:45.855Z,99.90
2023-04-14T18:05:13.147Z,99.90
2023-04-14T18:07:41.483Z,99.90
2023-04-14T18:10:08.372Z,99.90
2023-04-14T18:12:35.064Z,99.90
2023-04-14T18:15:01.846Z,99.90
2023-04-14T18:17:29.120Z,99.90
2023-04-14T18:19:56.314Z,99.90
2023-04-14T18:22:22.931Z,99.90
2023-04-14T18:24:50.795Z,99.90
2023-04-14T18:29:47.570Z,99.90
2023-04-14T18:32:14.456Z,99.90
2023-04-14T18:34:41.068Z,99.90
2023-04-14T18:37:07.962Z,99.90
2023-04-14T18:39:36.496Z,99.90
2023-04-14T18:42:03.765Z,99.90
2023-04-14T18:44:30.374Z,99.90
2023-04-14T18:46:57.007Z,99.90
2023-04-14T18:49:23.937Z,99.90
2023-04-14T18:51:50.769Z,99.90
2023-04-14T18:54:17.639Z,99.90
2023-04-14T18:56:44.312Z,99.90
2023-04-14T18:59:13.564Z,99.90
2023-04-14T19:01:40.381Z,99.90
2023-04-14T19:04:07.783Z,99.90
2023-04-14T19:06:34.745Z,99.90
2023-04-14T19:09:01.968Z,99.90
2023-04-14T19:11:29.025Z,99.90
2023-04-14T19:13:55.699Z,99.90
2023-04-14T19:16:22.719Z,99.90
2023-04-14T19:18:49.308Z,99.90
2023-04-14T19:21:16.271Z,99.90
2023-04-14T19:23:43.129Z,99.90
2023-04-14T19:26:11.411Z,99.90
2023-04-14T19:28:42.554Z,99.90
2023-04-14T19:31:09.640Z,99.90
2023-04-14T19:33:37.603Z,99.90
2023-04-14T19:36:10.986Z,99.90
2023-04-14T19:38:38.136Z,99.90
2023-04-14T19:41:04.750Z,99.90
2023-04-14T19:43:33.196Z,99.90
2023-04-14T19:46:04.511Z,99.90
2023-04-14T19:48:34.435Z,99.90
2023-04-14T19:51:01.929Z,99.90
2023-04-14T19:53:28.998Z,99.90
2023-04-14T19:55:56.935Z,99.90
2023-04-14T19:58:25.990Z,99.90
2023-04-14T20:00:53.319Z,99.90
2023-04-14T20:03:20.366Z,99.90
2023-04-14T20:05:50.662Z,99.90
2023-04-14T20:08:17.314Z,99.90
2023-04-14T20:10:44.012Z,99.90
2023-04-14T20:13:10.690Z,99.90
2023-04-14T20:15:37.671Z,99.90
2023-04-14T20:18:04.629Z,99.90
2023-04-14T20:20:31.265Z,99.90
2023-04-14T20:22:58.713Z,99.90
2023-04-14T20:25:25.397Z,99.90
2023-04-14T20:27:52.174Z,99.90
2023-04-14T20:30:18.830Z,99.90
2023-04-14T20:32:45.910Z,99.90
2023-04-14T20:35:12.490Z,99.90
2023-04-14T20:37:39.113Z,99.90
2023-04-14T20:40:06.147Z,99.90
2023-04-14T20:42:32.892Z,99.90
2023-04-14T20:44:59.504Z,99.90
2023-04-14T20:47:26.646Z,99.90
2023-04-14T20:49:53.314Z,99.90
2023-04-14T20:52:19.912Z,99.90
2023-04-14T20:54:46.528Z,99.90
2023-04-14T20:57:13.931Z,99.90
2023-04-14T20:59:40.644Z,99.90
2023-04-14T21:02:07.434Z,99.90
2023-04-14T21:04:35.936Z,99.90
2023-04-14T21:07:02.523Z,99.90
2023-04-14T21:09:30.168Z,99.90
2023-04-14T21:12:15.871Z,99.90
2023-04-14T21:15:28.413Z,99.90
2023-04-14T21:17:30.092Z,99.90
2023-04-14T21:19:56.779Z,99.90
2023-04-14T21:22:23.475Z,99.90
2023-04-14T21:24:50.713Z,99.90
2023-04-14T21:27:17.396Z,99.90
2023-04-14T21:29:44.548Z,99.90
2023-04-14T21:32:11.402Z,99.90
2023-04-14T21:34:38.140Z,99.90
2023-04-14T21:37:04.867Z,99.90
2023-04-14T21:39:33.262Z,99.90
2023-04-14T21:42:00.492Z,99.90
2023-04-14T21:44:27.535Z,99.90
2023-04-14T21:46:54.481Z,99.90
2023-04-14T21:49:21.287Z,99.90
2023-04-14T21:51:48.716Z,99.90
2023-04-14T21:54:15.448Z,99.90
2023-04-14T21:56:42.491Z,99.90
2023-04-14T21:59:09.102Z,99.90
2023-04-14T22:01:36.218Z,99.90
2023-04-14T22:04:03.133Z,99.90
2023-04-14T22:06:29.837Z,99.90
2023-04-14T22:08:56.460Z,99.90
2023-04-14T22:11:23.208Z,99.90
2023-04-14T22:13:49.900Z,99.90
2023-04-14T22:16:16.559Z,99.90
2023-04-14T22:18:43.274Z,99.90
2023-04-14T22:21:10.476Z,99.90
2023-04-14T22:23:38.558Z,99.90
2023-04-14T22:26:05.197Z,99.90
2023-04-14T22:28:31.841Z,99.90
2023-04-14T22:31:00.432Z,99.90
2023-04-14T22:33:27.290Z,99.90
2023-04-14T22:35:54.120Z,99.90
2023-04-14T22:38:21.108Z,99.90
2023-04-14T22:40:49.256Z,99.90
2023-04-14T22:43:17.527Z,99.90
2023-04-14T22:45:44.116Z,99.90
2023-04-14T22:48:11.514Z,99.90
2023-04-14T22:50:38.571Z,99.90
2023-04-14T22:53:05.646Z,99.90
2023-04-14T22:55:32.249Z,99.90
2023-04-14T22:57:58.905Z,99.90
2023-04-14T23:00:25.908Z,99.90
2023-04-14T23:02:53.017Z,99.90
2023-04-14T23:05:20.085Z,99.90
2023-04-14T23:07:47.099Z,99.90
2023-04-14T23:10:14.305Z,99.90
2023-04-14T23:12:40.911Z,99.90
2023-04-14T23:15:07.934Z,99.90
2023-04-14T23:17:34.910Z,99.90
2023-04-14T23:20:01.871Z,99.90
2023-04-14T23:22:29.540Z,99.90
2023-04-14T23:24:56.560Z,99.90
2023-04-14T23:27:23.145Z,99.90
2023-04-14T23:29:49.736Z,99.90
2023-04-14T23:32:16.784Z,99.90
2023-04-14T23:34:43.477Z,99.90
2023-04-14T23:37:10.072Z,99.90
2023-04-14T23:39:36.797Z,99.90
2023-04-14T23:42:03.441Z,99.90
2023-04-14T23:44:30.264Z,99.90
2023-04-14T23:46:57.343Z,99.90
2023-04-14T23:49:34.474Z,99.90
2023-04-14T23:52:02.144Z,99.90
2023-04-14T23:54:30.722Z,99.90
2023-04-14T23:56:58.146Z,99.90
2023-04-14T23:59:24.822Z,99.90
